createdAt,value
2022-08-19T00:00:05.403Z,19.19
2022-08-19T00:02:33.537Z,19.26
2022-08-19T00:05:02.942Z,19.05
2022-08-19T00:07:30.990Z,19.23
2022-08-19T00:09:58.976Z,19.16
2022-08-19T00:12:27.093Z,19.04
2022-08-19T00:14:55.261Z,19.06
2022-08-19T00:17:23.205Z,19.14
2022-08-19T00:19:51.096Z,19.18
2022-08-19T00:22:20.327Z,19.24
2022-08-19T00:24:49.557Z,19.26
2022-08-19T00:27:25.748Z,19.22
2022-08-19T00:29:54.832Z,19.23
2022-08-19T00:32:23.024Z,19.26
2022-08-19T00:34:53.764Z,19.21
2022-08-19T00:37:24.166Z,19.18
2022-08-19T00:39:53.137Z,19.03
2022-08-19T00:42:21.746Z,18.87
2022-08-19T00:44:50.235Z,18.84
2022-08-19T00:47:18.191Z,18.89
2022-08-19T00:49:51.606Z,18.68
2022-08-19T00:52:23.312Z,18.69
2022-08-19T00:54:52.892Z,18.81
2022-08-19T00:57:24.494Z,18.83
2022-08-19T01:00:01.457Z,18.87
2022-08-19T01:02:31.752Z,18.76
2022-08-19T01:04:59.638Z,18.77
2022-08-19T01:07:28.943Z,18.82
2022-08-19T01:10:04.234Z,18.90
2022-08-19T01:12:32.325Z,18.92
2022-08-19T01:15:00.212Z,18.84
2022-08-19T01:17:28.647Z,18.82
2022-08-19T01:19:56.922Z,18.76
2022-08-19T01:22:33.638Z,18.87
2022-08-19T01:25:02.002Z,18.82
2022-08-19T01:27:40.070Z,18.69
2022-08-19T01:30:14.404Z,18.60
2022-08-19T01:32:42.370Z,18.72
2022-08-19T01:35:10.602Z,18.78
2022-08-19T01:37:48.120Z,18.81
2022-08-19T01:40:16.596Z,18.54
2022-08-19T01:42:44.709Z,18.59
2022-08-19T01:45:12.634Z,18.60
2022-08-19T01:47:40.588Z,18.67
2022-08-19T01:50:09.732Z,18.58
2022-08-19T01:52:37.940Z,18.67
2022-08-19T01:55:08.841Z,18.76
2022-08-19T01:57:36.784Z,18.67
2022-08-19T02:00:07.707Z,18.67
2022-08-19T02:02:35.624Z,18.74
2022-08-19T02:05:03.660Z,18.71
2022-08-19T02:07:33.741Z,18.77
2022-08-19T02:10:08.926Z,18.67
2022-08-19T02:12:41.606Z,18.53
2022-08-19T02:15:10.707Z,18.46
2022-08-19T02:17:41.837Z,18.57
2022-08-19T02:20:11.078Z,18.54
2022-08-19T02:22:38.979Z,18.63
2022-08-19T02:25:07.214Z,18.67
2022-08-19T02:27:35.429Z,18.71
2022-08-19T02:30:06.853Z,18.69
2022-08-19T02:32:34.915Z,18.63
2022-08-19T02:35:12.978Z,18.58
2022-08-19T02:37:58.358Z,18.55
2022-08-19T02:40:27.687Z,18.53
2022-08-19T02:42:56.058Z,18.43
2022-08-19T02:45:25.754Z,18.60
2022-08-19T02:47:53.921Z,18.45
2022-08-19T02:50:22.662Z,18.43
2022-08-19T02:52:50.998Z,18.49
2022-08-19T02:55:19.006Z,18.55
2022-08-19T02:57:46.906Z,18.66
2022-08-19T03:00:15.300Z,18.72
2022-08-19T03:02:44.601Z,18.72
2022-08-19T03:05:12.582Z,18.74
2022-08-19T03:07:40.501Z,18.73
2022-08-19T03:10:09.143Z,18.81
2022-08-19T03:12:38.150Z,18.64
2022-08-19T03:15:08.550Z,18.51
2022-08-19T03:17:36.486Z,18.44
2022-08-19T03:20:06.892Z,18.47
2022-08-19T03:22:35.330Z,18.66
2022-08-19T03:25:03.283Z,18.65
2022-08-19T03:27:34.347Z,18.73
2022-08-19T03:30:03.041Z,18.71
2022-08-19T03:32:32.520Z,18.68
2022-08-19T03:35:01.147Z,18.59
2022-08-19T03:37:30.710Z,18.63
2022-08-19T03:40:01.309Z,18.60
2022-08-19T03:42:32.753Z,18.59
2022-08-19T03:45:08.468Z,18.65
2022-08-19T03:47:36.398Z,18.64
2022-08-19T03:50:04.427Z,18.60
2022-08-19T03:52:33.769Z,18.50
2022-08-19T03:55:02.059Z,18.55
2022-08-19T03:57:31.976Z,18.67
2022-08-19T04:00:04.109Z,18.46
2022-08-19T04:02:42.962Z,18.27
2022-08-19T04:05:27.562Z,18.32
2022-08-19T04:07:58.094Z,18.33
2022-08-19T04:10:26.245Z,18.40
2022-08-19T04:12:54.349Z,18.50
2022-08-19T04:15:22.378Z,18.50
2022-08-19T04:17:50.830Z,18.39
2022-08-19T04:20:18.982Z,18.42
2022-08-19T04:22:47.106Z,18.31
2022-08-19T04:25:16.621Z,18.22
2022-08-19T04:27:47.511Z,18.18
2022-08-19T04:30:15.923Z,18.29
2022-08-19T04:32:44.704Z,18.31
2022-08-19T04:35:16.777Z,18.25
2022-08-19T04:37:46.538Z,18.38
2022-08-19T04:40:31.656Z,18.42
2022-08-19T04:43:02.091Z,18.42
2022-08-19T04:45:39.573Z,18.45
2022-08-19T04:48:25.688Z,18.51
2022-08-19T04:50:58.539Z,18.61
2022-08-19T04:53:29.602Z,18.64
2022-08-19T04:55:57.527Z,18.67
2022-08-19T04:58:27.910Z,18.70
2022-08-19T05:00:56.555Z,18.70
2022-08-19T05:03:27.594Z,18.86
2022-08-19T05:05:58.973Z,18.87
2022-08-19T05:08:31.253Z,18.64
2022-08-19T05:10:59.925Z,18.77
2022-08-19T05:13:29.316Z,18.78
2022-08-19T05:15:57.634Z,18.80
2022-08-19T05:18:43.295Z,18.77
2022-08-19T05:21:28.970Z,18.86
2022-08-19T05:23:56.956Z,18.83
2022-08-19T05:26:26.916Z,18.92
2022-08-19T05:28:56.589Z,18.94
2022-08-19T05:31:24.886Z,18.92
2022-08-19T05:33:53.373Z,19.03
2022-08-19T05:36:22.282Z,19.04
2022-08-19T05:38:51.426Z,19.02
2022-08-19T05:41:19.779Z,19.22
2022-08-19T05:43:48.225Z,19.25
2022-08-19T05:46:27.685Z,19.27
2022-08-19T05:49:00.968Z,19.23
2022-08-19T05:51:29.384Z,19.34
2022-08-19T05:53:57.488Z,19.35
2022-08-19T05:56:25.707Z,19.43
2022-08-19T05:58:54.242Z,19.40
2022-08-19T06:01:23.987Z,19.50
2022-08-19T06:03:52.077Z,19.50
2022-08-19T06:06:20.067Z,19.49
2022-08-19T06:08:51.112Z,19.61
2022-08-19T06:11:21.660Z,19.61
2022-08-19T06:13:51.612Z,19.69
2022-08-19T06:16:23.282Z,19.84
2022-08-19T06:18:53.721Z,19.82
2022-08-19T06:21:22.275Z,19.83
2022-08-19T06:23:51.410Z,19.73
2022-08-19T06:26:19.635Z,19.90
2022-08-19T06:28:50.124Z,19.85
2022-08-19T06:31:18.569Z,19.72
2022-08-19T06:33:47.204Z,19.87
2022-08-19T06:36:28.261Z,20.06
2022-08-19T06:38:56.793Z,20.20
2022-08-19T06:41:24.704Z,20.04
2022-08-19T06:43:54.198Z,20.08
2022-08-19T06:46:24.802Z,20.39
2022-08-19T06:48:54.430Z,20.39
2022-08-19T06:51:24.980Z,20.41
2022-08-19T06:53:56.106Z,20.66
2022-08-19T06:56:31.883Z,20.81
2022-08-19T06:58:59.965Z,20.78
2022-08-19T07:01:28.287Z,20.91
2022-08-19T07:03:58.090Z,21.04
2022-08-19T07:06:44.086Z,21.01
2022-08-19T07:09:14.446Z,21.12
2022-08-19T07:11:47.170Z,21.06
2022-08-19T07:14:19.237Z,21.22
2022-08-19T07:16:48.510Z,21.34
2022-08-19T07:19:18.730Z,21.28
2022-08-19T07:21:48.861Z,21.36
2022-08-19T07:24:21.057Z,21.53
2022-08-19T07:26:51.954Z,21.52
2022-08-19T07:29:22.949Z,21.57
2022-08-19T07:31:53.602Z,21.70
2022-08-19T07:34:22.582Z,21.70
2022-08-19T07:36:51.951Z,21.79
2022-08-19T07:39:21.578Z,22.02
2022-08-19T07:41:49.904Z,22.19
2022-08-19T07:44:17.868Z,22.09
2022-08-19T07:46:50.324Z,21.94
2022-08-19T07:49:21.693Z,21.89
2022-08-19T07:51:52.198Z,22.12
2022-08-19T07:54:20.917Z,22.22
2022-08-19T07:56:49.099Z,21.92
2022-08-19T07:59:20.823Z,22.01
2022-08-19T08:01:51.397Z,22.03
2022-08-19T08:04:38.233Z,22.29
2022-08-19T08:07:25.249Z,22.31
2022-08-19T08:09:59.884Z,22.22
2022-08-19T08:12:35.159Z,22.04
2022-08-19T08:15:08.295Z,22.09
2022-08-19T08:17:48.589Z,22.60
2022-08-19T08:20:17.923Z,22.63
2022-08-19T08:23:05.466Z,22.67
2022-08-19T08:25:34.315Z,22.40
2022-08-19T08:28:02.472Z,22.68
2022-08-19T08:30:32.500Z,22.70
2022-08-19T08:33:00.891Z,22.50
2022-08-19T08:35:30.714Z,22.73
2022-08-19T08:38:00.184Z,23.06
2022-08-19T08:40:31.063Z,23.16
2022-08-19T08:45:40.928Z,23.27
2022-08-19T08:48:24.037Z,23.29
2022-08-19T08:50:53.545Z,23.55
2022-08-19T08:53:27.454Z,23.45
2022-08-19T08:56:01.393Z,23.86
2022-08-19T08:58:31.730Z,23.96
2022-08-19T09:00:59.765Z,23.54
2022-08-19T09:03:31.534Z,23.64
2022-08-19T09:06:02.476Z,23.94
2022-08-19T09:08:44.011Z,24.02
2022-08-19T09:11:15.351Z,24.14
2022-08-19T09:14:23.550Z,23.93
2022-08-19T09:17:01.062Z,24.21
2022-08-19T09:19:29.496Z,24.01
2022-08-19T09:21:57.979Z,24.39
2022-08-19T09:24:31.012Z,24.42
2022-08-19T09:26:59.954Z,24.38
2022-08-19T09:29:28.132Z,24.16
2022-08-19T09:31:56.515Z,24.13
2022-08-19T09:34:25.635Z,23.97
2022-08-19T09:36:55.362Z,24.22
2022-08-19T09:39:23.872Z,24.57
2022-08-19T09:41:54.127Z,24.55
2022-08-19T09:44:22.514Z,23.99
2022-08-19T09:46:50.479Z,24.19
2022-08-19T09:49:19.197Z,24.23
2022-08-19T09:51:51.263Z,24.01
2022-08-19T09:54:23.620Z,23.90
2022-08-19T09:56:55.011Z,24.48
2022-08-19T09:59:23.107Z,24.59
2022-08-19T10:01:52.049Z,24.37
2022-08-19T10:04:22.444Z,24.35
2022-08-19T10:06:53.902Z,24.54
2022-08-19T10:09:26.381Z,24.40
2022-08-19T10:12:05.072Z,24.51
2022-08-19T10:14:34.260Z,24.57
2022-08-19T10:17:04.707Z,24.59
2022-08-19T10:19:55.135Z,24.69
2022-08-19T10:22:23.773Z,24.77
2022-08-19T10:24:54.031Z,24.84
2022-08-19T10:27:23.416Z,25.08
2022-08-19T10:29:51.656Z,25.10
2022-08-19T10:32:19.714Z,25.28
2022-08-19T10:35:02.410Z,25.45
2022-08-19T10:37:33.895Z,25.48
2022-08-19T10:40:04.268Z,25.51
2022-08-19T10:42:33.815Z,25.14
2022-08-19T10:45:05.038Z,25.17
2022-08-19T10:47:33.827Z,25.34
2022-08-19T10:50:19.958Z,25.20
2022-08-19T10:52:50.646Z,25.44
2022-08-19T10:55:37.344Z,25.37
2022-08-19T10:58:12.023Z,25.64
2022-08-19T11:00:41.575Z,25.78
2022-08-19T11:03:09.775Z,25.65
2022-08-19T11:05:40.085Z,25.77
2022-08-19T11:08:22.270Z,25.69
2022-08-19T11:10:51.149Z,25.63
2022-08-19T11:13:20.471Z,25.24
2022-08-19T11:15:48.589Z,25.26
2022-08-19T11:18:18.046Z,25.64
2022-08-19T11:20:46.382Z,25.48
2022-08-19T11:23:23.894Z,25.52
2022-08-19T11:25:51.908Z,25.61
2022-08-19T11:28:21.786Z,26.11
2022-08-19T11:30:49.740Z,25.81
2022-08-19T11:33:18.564Z,26.22
2022-08-19T11:35:46.774Z,26.18
2022-08-19T11:38:15.832Z,26.11
2022-08-19T11:40:44.523Z,26.26
2022-08-19T11:43:12.473Z,26.51
2022-08-19T11:45:44.095Z,26.24
2022-08-19T11:48:12.023Z,26.32
2022-08-19T11:50:41.354Z,26.38
2022-08-19T11:53:09.275Z,26.41
2022-08-19T11:55:43.388Z,25.66
2022-08-19T11:58:18.634Z,26.05
2022-08-19T12:00:48.588Z,26.26
2022-08-19T12:03:16.619Z,26.18
2022-08-19T12:05:44.627Z,26.31
2022-08-19T12:08:13.828Z,26.44
2022-08-19T12:10:41.967Z,26.18
2022-08-19T12:13:10.407Z,26.28
2022-08-19T12:15:38.829Z,26.08
2022-08-19T12:18:08.442Z,26.04
2022-08-19T12:20:37.084Z,26.27
2022-08-19T12:23:05.239Z,26.43
2022-08-19T12:25:33.685Z,26.44
2022-08-19T12:28:01.799Z,26.63
2022-08-19T12:30:29.933Z,26.91
2022-08-19T12:33:00.166Z,26.84
2022-08-19T12:35:29.849Z,27.00
2022-08-19T12:37:57.976Z,26.87
2022-08-19T12:40:26.599Z,27.03
2022-08-19T12:42:54.736Z,27.30
2022-08-19T12:45:23.475Z,27.13
2022-08-19T12:47:54.923Z,26.52
2022-08-19T12:50:23.526Z,26.50
2022-08-19T12:52:53.208Z,26.87
2022-08-19T12:55:21.212Z,27.09
2022-08-19T12:57:49.653Z,27.25
2022-08-19T13:00:19.648Z,27.65
2022-08-19T13:02:50.374Z,27.61
2022-08-19T13:05:21.017Z,27.50
2022-08-19T13:07:49.070Z,27.37
2022-08-19T13:10:21.741Z,26.78
2022-08-19T13:12:50.623Z,26.94
2022-08-19T13:15:23.669Z,26.84
2022-08-19T13:17:53.890Z,26.82
2022-08-19T13:20:22.866Z,26.77
2022-08-19T13:22:50.981Z,26.53
2022-08-19T13:25:21.201Z,26.73
2022-08-19T13:27:50.362Z,26.62
2022-08-19T13:30:39.284Z,26.06
2022-08-19T13:33:15.195Z,26.29
2022-08-19T13:35:45.407Z,26.74
2022-08-19T13:38:14.052Z,26.79
2022-08-19T13:40:43.601Z,26.74
2022-08-19T13:43:17.890Z,26.88
2022-08-19T13:45:51.773Z,27.02
2022-08-19T13:48:19.909Z,27.13
2022-08-19T13:50:49.183Z,26.93
2022-08-19T13:53:17.305Z,27.37
2022-08-19T13:55:46.628Z,27.14
2022-08-19T13:58:15.174Z,27.48
2022-08-19T14:00:45.167Z,27.63
2022-08-19T14:03:13.249Z,27.89
2022-08-19T14:05:41.189Z,27.57
2022-08-19T14:08:09.816Z,27.61
2022-08-19T14:10:37.768Z,27.83
2022-08-19T14:13:07.036Z,27.96
2022-08-19T14:15:35.225Z,28.08
2022-08-19T14:18:03.171Z,28.11
2022-08-19T14:20:36.527Z,27.78
2022-08-19T14:23:06.185Z,28.16
2022-08-19T14:25:34.362Z,28.04
2022-08-19T14:28:02.931Z,28.08
2022-08-19T14:30:33.627Z,28.16
2022-08-19T14:33:02.189Z,28.56
2022-08-19T14:35:31.392Z,28.65
2022-08-19T14:37:59.526Z,28.55
2022-08-19T14:40:28.891Z,28.14
2022-08-19T14:43:00.117Z,28.24
2022-08-19T14:45:28.507Z,27.81
2022-08-19T14:47:58.014Z,27.70
2022-08-19T14:50:25.983Z,27.36
2022-08-19T14:53:00.521Z,27.49
2022-08-19T14:55:28.686Z,27.45
2022-08-19T14:57:56.603Z,27.19
2022-08-19T15:00:26.021Z,27.14
2022-08-19T15:02:54.574Z,27.22
2022-08-19T15:05:24.399Z,26.91
2022-08-19T15:07:59.779Z,26.82
2022-08-19T15:10:27.720Z,26.99
2022-08-19T15:12:56.065Z,27.35
2022-08-19T15:15:24.625Z,27.16
2022-08-19T15:17:52.584Z,27.49
2022-08-19T15:20:21.414Z,27.63
2022-08-19T15:22:50.808Z,27.72
2022-08-19T15:25:19.633Z,27.78
2022-08-19T15:27:48.049Z,27.98
2022-08-19T15:30:21.116Z,27.75
2022-08-19T15:32:49.387Z,27.84
2022-08-19T15:35:19.383Z,27.72
2022-08-19T15:37:47.440Z,27.55
2022-08-19T15:40:16.991Z,27.38
2022-08-19T15:42:45.059Z,27.51
2022-08-19T15:45:14.100Z,27.79
2022-08-19T15:47:43.703Z,27.72
2022-08-19T15:50:13.347Z,27.85
2022-08-19T15:52:49.966Z,27.78
2022-08-19T15:55:32.764Z,27.85
2022-08-19T15:58:27.872Z,27.58
2022-08-19T16:01:15.273Z,27.41
2022-08-19T16:04:02.288Z,26.92
2022-08-19T16:06:31.481Z,26.56
2022-08-19T16:09:02.023Z,26.80
2022-08-19T16:11:32.339Z,26.52
2022-08-19T16:14:00.440Z,26.29
2022-08-19T16:16:33.525Z,26.12
2022-08-19T16:19:03.789Z,25.93
2022-08-19T16:21:33.521Z,25.80
2022-08-19T16:24:02.164Z,25.83
2022-08-19T16:26:31.587Z,25.66
2022-08-19T16:29:01.798Z,25.62
2022-08-19T16:31:29.797Z,25.83
2022-08-19T16:33:58.479Z,25.82
2022-08-19T16:36:27.202Z,25.66
2022-08-19T16:38:56.732Z,25.69
2022-08-19T16:41:25.198Z,25.61
2022-08-19T16:43:54.678Z,25.63
2022-08-19T16:46:23.140Z,25.52
2022-08-19T16:48:54.987Z,25.36
2022-08-19T16:51:23.446Z,25.46
2022-08-19T16:53:52.738Z,25.66
2022-08-19T16:56:21.374Z,25.60
2022-08-19T16:58:50.263Z,25.75
2022-08-19T17:01:22.674Z,25.70
2022-08-19T17:03:52.800Z,25.49
2022-08-19T17:06:25.066Z,25.63
2022-08-19T17:08:56.449Z,25.62
2022-08-19T17:11:24.946Z,25.68
2022-08-19T17:13:53.108Z,25.51
2022-08-19T17:16:24.869Z,25.64
2022-08-19T17:18:54.737Z,25.51
2022-08-19T17:21:23.282Z,25.68
2022-08-19T17:23:51.432Z,25.44
2022-08-19T17:26:19.539Z,25.46
2022-08-19T17:28:49.835Z,25.57
2022-08-19T17:31:18.629Z,25.45
2022-08-19T17:33:48.987Z,25.48
2022-08-19T17:36:17.673Z,25.32
2022-08-19T17:38:45.863Z,25.27
2022-08-19T17:41:13.918Z,25.32
2022-08-19T17:43:43.782Z,25.32
2022-08-19T17:46:18.113Z,25.28
2022-08-19T17:48:54.730Z,25.17
2022-08-19T17:51:24.074Z,25.02
2022-08-19T17:53:53.126Z,25.13
2022-08-19T17:56:21.112Z,25.16
2022-08-19T17:58:57.825Z,24.84
2022-08-19T18:01:41.619Z,24.83
2022-08-19T18:04:19.842Z,24.64
2022-08-19T18:06:53.368Z,24.67
2022-08-19T18:09:24.436Z,24.53
2022-08-19T18:11:53.999Z,24.54
2022-08-19T18:14:33.364Z,24.50
2022-08-19T18:17:05.481Z,24.47
2022-08-19T18:19:41.030Z,24.27
2022-08-19T18:22:11.260Z,24.30
2022-08-19T18:24:41.942Z,24.36
2022-08-19T18:27:10.278Z,24.05
2022-08-19T18:29:40.223Z,24.06
2022-08-19T18:32:12.810Z,24.01
2022-08-19T18:34:42.409Z,23.88
2022-08-19T18:37:10.626Z,23.86
2022-08-19T18:39:56.174Z,23.80
2022-08-19T18:42:42.283Z,23.69
2022-08-19T18:45:36.429Z,23.63
2022-08-19T18:48:27.060Z,23.65
2022-08-19T18:50:58.086Z,23.72
2022-08-19T18:53:26.246Z,23.47
2022-08-19T18:55:55.521Z,23.53
2022-08-19T18:58:26.413Z,23.54
2022-08-19T19:00:57.484Z,23.40
2022-08-19T19:03:26.196Z,23.48
2022-08-19T19:05:54.227Z,23.31
2022-08-19T19:08:27.009Z,23.29
2022-08-19T19:10:59.015Z,23.15
2022-08-19T19:13:29.134Z,23.17
2022-08-19T19:15:57.871Z,23.22
2022-08-19T19:18:26.149Z,23.19
2022-08-19T19:20:54.126Z,23.14
2022-08-19T19:23:26.072Z,23.04
2022-08-19T19:25:54.045Z,23.10
2022-08-19T19:28:28.172Z,22.90
2022-08-19T19:30:58.081Z,22.87
2022-08-19T19:33:26.283Z,22.94
2022-08-19T19:35:54.328Z,22.96
2022-08-19T19:38:23.625Z,22.97
2022-08-19T19:40:52.367Z,22.74
2022-08-19T19:43:20.968Z,22.72
2022-08-19T19:45:52.027Z,22.70
2022-08-19T19:48:20.079Z,22.74
2022-08-19T19:50:48.861Z,22.68
2022-08-19T19:53:27.857Z,22.80
2022-08-19T19:55:58.958Z,22.79
2022-08-19T19:58:28.949Z,22.70
2022-08-19T20:00:58.017Z,22.73
2022-08-19T20:03:26.101Z,22.65
2022-08-19T20:05:54.832Z,22.73
2022-08-19T20:08:40.250Z,22.88
2022-08-19T20:11:10.259Z,22.76
2022-08-19T20:13:40.789Z,22.73
2022-08-19T20:16:08.891Z,22.82
2022-08-19T20:18:36.848Z,22.74
2022-08-19T20:21:04.870Z,22.79
2022-08-19T20:23:32.953Z,22.66
2022-08-19T20:26:01.277Z,22.86
2022-08-19T20:28:30.650Z,22.86
2022-08-19T20:30:58.639Z,22.73
2022-08-19T20:33:26.638Z,22.58
2022-08-19T20:35:54.571Z,22.65
2022-08-19T20:38:23.657Z,22.66
2022-08-19T20:40:53.034Z,22.71
2022-08-19T20:43:21.651Z,22.52
2022-08-19T20:45:51.087Z,22.71
2022-08-19T20:48:19.052Z,22.75
2022-08-19T20:50:47.799Z,22.57
2022-08-19T20:53:17.302Z,22.64
2022-08-19T20:55:45.770Z,22.44
2022-08-19T20:58:13.815Z,22.56
2022-08-19T21:00:44.077Z,22.40
2022-08-19T21:03:14.636Z,22.34
2022-08-19T21:05:43.495Z,22.42
2022-08-19T21:08:12.035Z,22.39
2022-08-19T21:10:42.363Z,22.31
2022-08-19T21:13:10.645Z,22.42
2022-08-19T21:15:40.741Z,22.23
2022-08-19T21:18:09.137Z,22.25
2022-08-19T21:20:39.072Z,22.29
2022-08-19T21:23:07.358Z,22.35
2022-08-19T21:25:35.567Z,22.23
2022-08-19T21:28:12.766Z,22.26
2022-08-19T21:30:59.124Z,22.21
2022-08-19T21:33:31.769Z,22.25
2022-08-19T21:36:01.751Z,22.29
2022-08-19T21:38:29.658Z,22.21
2022-08-19T21:40:58.064Z,22.09
2022-08-19T21:43:26.305Z,22.12
2022-08-19T21:45:54.612Z,22.22
2022-08-19T21:48:22.502Z,22.26
2022-08-19T21:50:51.959Z,22.04
2022-08-19T21:53:22.841Z,22.19
2022-08-19T21:55:53.784Z,22.02
2022-08-19T21:58:28.142Z,22.10
2022-08-19T22:00:58.785Z,21.85
2022-08-19T22:03:26.924Z,22.05
2022-08-19T22:05:54.820Z,21.94
2022-08-19T22:08:24.242Z,22.01
2022-08-19T22:10:52.509Z,22.11
2022-08-19T22:13:20.552Z,21.96
2022-08-19T22:15:50.394Z,22.06
2022-08-19T22:18:20.890Z,22.05
2022-08-19T22:20:50.354Z,22.10
2022-08-19T22:23:18.691Z,21.96
2022-08-19T22:25:48.315Z,22.06
2022-08-19T22:28:19.081Z,22.07
2022-08-19T22:30:55.894Z,21.91
2022-08-19T22:33:25.810Z,21.84
2022-08-19T22:35:53.750Z,21.76
2022-08-19T22:38:22.218Z,21.73
2022-08-19T22:40:52.401Z,21.80
2022-08-19T22:43:21.771Z,21.79
2022-08-19T22:45:50.747Z,21.72
2022-08-19T22:48:20.257Z,21.71
2022-08-19T22:51:08.839Z,21.76
2022-08-19T22:53:37.232Z,21.78
2022-08-19T22:56:06.832Z,21.66
2022-08-19T22:58:34.801Z,21.72
2022-08-19T23:01:02.944Z,21.72
2022-08-19T23:03:30.971Z,21.74
2022-08-19T23:05:58.923Z,21.65
2022-08-19T23:08:26.834Z,21.62
2022-08-19T23:10:54.826Z,21.76
2022-08-19T23:13:24.886Z,21.76
2022-08-19T23:15:52.867Z,21.48
2022-08-19T23:18:21.195Z,21.50
2022-08-19T23:20:49.163Z,21.47
2022-08-19T23:23:19.348Z,21.49
2022-08-19T23:25:47.531Z,21.50
2022-08-19T23:28:33.008Z,21.33
2022-08-19T23:31:02.439Z,21.50
2022-08-19T23:33:38.149Z,21.43
2022-08-19T23:36:19.549Z,21.38
2022-08-19T23:38:48.557Z,21.46
2022-08-19T23:41:17.588Z,21.17
2022-08-19T23:43:45.671Z,21.52
2022-08-19T23:46:27.509Z,21.45
2022-08-19T23:48:56.755Z,21.28
2022-08-19T23:51:26.496Z,21.27
2022-08-19T23:53:54.600Z,21.30
2022-08-19T23:56:22.703Z,21.30
2022-08-19T23:58:50.735Z,21.34
